sensor_id;sensor_type;location;lat;lon;timestamp;P1;durP1;ratioP1;P2;durP2;ratioP2
59876;SDS011;74472;51.140;17.184;2024-02-14T00:01:13;83.25;;;44.65;;
59876;SDS011;74472;51.140;17.184;2024-02-14T00:03:38;79.78;;;42.00;;
59876;SDS011;74472;51.140;17.184;2024-02-14T00:06:04;68.85;;;40.95;;
59876;SDS011;74472;51.140;17.184;2024-02-14T00:08:30;74.20;;;43.88;;
59876;SDS011;74472;51.140;17.184;2024-02-14T00:10:56;75.90;;;40.83;;
59876;SDS011;74472;51.140;17.184;2024-02-14T00:13:21;70.10;;;39.25;;
59876;SDS011;74472;51.140;17.184;2024-02-14T00:15:46;69.40;;;39.55;;
59876;SDS011;74472;51.140;17.184;2024-02-14T00:18:12;68.35;;;38.88;;
59876;SDS011;74472;51.140;17.184;2024-02-14T00:20:38;70.43;;;39.38;;
59876;SDS011;74472;51.140;17.184;2024-02-14T00:23:06;68.38;;;39.13;;
59876;SDS011;74472;51.140;17.184;2024-02-14T00:25:31;76.80;;;43.67;;
59876;SDS011;74472;51.140;17.184;2024-02-14T00:27:57;68.60;;;40.97;;
59876;SDS011;74472;51.140;17.184;2024-02-14T00:30:25;68.85;;;39.00;;
59876;SDS011;74472;51.140;17.184;2024-02-14T00:32:51;67.03;;;40.28;;
59876;SDS011;74472;51.140;17.184;2024-02-14T00:35:16;63.20;;;39.08;;
59876;SDS011;74472;51.140;17.184;2024-02-14T00:37:42;64.85;;;40.35;;
59876;SDS011;74472;51.140;17.184;2024-02-14T00:40:07;64.90;;;38.60;;
59876;SDS011;74472;51.140;17.184;2024-02-14T00:42:33;74.07;;;40.42;;
59876;SDS011;74472;51.140;17.184;2024-02-14T00:45:00;74.40;;;40.60;;
59876;SDS011;74472;51.140;17.184;2024-02-14T00:47:25;65.03;;;37.72;;
59876;SDS011;74472;51.140;17.184;2024-02-14T00:49:50;66.88;;;38.55;;
59876;SDS011;74472;51.140;17.184;2024-02-14T00:52:16;65.32;;;39.13;;
59876;SDS011;74472;51.140;17.184;2024-02-14T00:54:42;66.75;;;38.85;;
59876;SDS011;74472;51.140;17.184;2024-02-14T00:57:07;63.30;;;36.83;;
59876;SDS011;74472;51.140;17.184;2024-02-14T00:59:33;66.32;;;37.88;;
59876;SDS011;74472;51.140;17.184;2024-02-14T01:01:58;60.38;;;35.78;;
59876;SDS011;74472;51.140;17.184;2024-02-14T01:04:24;62.70;;;37.97;;
59876;SDS011;74472;51.140;17.184;2024-02-14T01:06:49;55.40;;;34.55;;
59876;SDS011;74472;51.140;17.184;2024-02-14T01:09:16;54.05;;;33.20;;
59876;SDS011;74472;51.140;17.184;2024-02-14T01:11:42;47.50;;;30.80;;
59876;SDS011;74472;51.140;17.184;2024-02-14T01:14:07;45.72;;;30.02;;
59876;SDS011;74472;51.140;17.184;2024-02-14T01:16:33;52.28;;;31.08;;
59876;SDS011;74472;51.140;17.184;2024-02-14T01:18:59;48.05;;;29.27;;
59876;SDS011;74472;51.140;17.184;2024-02-14T01:21:24;47.72;;;30.88;;
59876;SDS011;74472;51.140;17.184;2024-02-14T01:23:49;50.70;;;30.73;;
59876;SDS011;74472;51.140;17.184;2024-02-14T01:26:14;47.63;;;29.48;;
59876;SDS011;74472;51.140;17.184;2024-02-14T01:28:40;44.90;;;26.75;;
59876;SDS011;74472;51.140;17.184;2024-02-14T01:31:05;47.13;;;28.08;;
59876;SDS011;74472;51.140;17.184;2024-02-14T01:33:31;54.88;;;31.15;;
59876;SDS011;74472;51.140;17.184;2024-02-14T01:35:56;47.72;;;29.63;;
59876;SDS011;74472;51.140;17.184;2024-02-14T01:38:22;50.55;;;30.77;;
59876;SDS011;74472;51.140;17.184;2024-02-14T01:40:48;52.00;;;31.52;;
59876;SDS011;74472;51.140;17.184;2024-02-14T01:43:13;41.67;;;29.10;;
59876;SDS011;74472;51.140;17.184;2024-02-14T01:45:39;51.45;;;31.88;;
59876;SDS011;74472;51.140;17.184;2024-02-14T01:48:05;51.00;;;31.42;;
59876;SDS011;74472;51.140;17.184;2024-02-14T01:50:31;49.38;;;32.90;;
59876;SDS011;74472;51.140;17.184;2024-02-14T01:53:00;50.83;;;32.90;;
59876;SDS011;74472;51.140;17.184;2024-02-14T01:55:26;53.25;;;32.05;;
59876;SDS011;74472;51.140;17.184;2024-02-14T01:57:53;52.03;;;31.73;;
59876;SDS011;74472;51.140;17.184;2024-02-14T02:00:19;56.05;;;34.60;;
59876;SDS011;74472;51.140;17.184;2024-02-14T02:02:45;52.08;;;32.60;;
59876;SDS011;74472;51.140;17.184;2024-02-14T02:05:11;49.08;;;30.55;;
59876;SDS011;74472;51.140;17.184;2024-02-14T02:07:37;47.13;;;31.05;;
59876;SDS011;74472;51.140;17.184;2024-02-14T02:10:05;59.20;;;33.97;;
59876;SDS011;74472;51.140;17.184;2024-02-14T02:12:31;53.42;;;31.38;;
59876;SDS011;74472;51.140;17.184;2024-02-14T02:14:57;55.13;;;32.72;;
59876;SDS011;74472;51.140;17.184;2024-02-14T02:17:23;58.17;;;31.00;;
59876;SDS011;74472;51.140;17.184;2024-02-14T02:19:49;48.55;;;32.35;;
59876;SDS011;74472;51.140;17.184;2024-02-14T02:22:14;52.90;;;31.90;;
59876;SDS011;74472;51.140;17.184;2024-02-14T02:24:39;54.55;;;32.70;;
59876;SDS011;74472;51.140;17.184;2024-02-14T02:27:05;51.25;;;30.35;;
59876;SDS011;74472;51.140;17.184;2024-02-14T02:29:31;47.40;;;31.05;;
59876;SDS011;74472;51.140;17.184;2024-02-14T02:31:57;47.33;;;31.02;;
59876;SDS011;74472;51.140;17.184;2024-02-14T02:34:23;48.78;;;30.17;;
59876;SDS011;74472;51.140;17.184;2024-02-14T02:36:48;51.08;;;29.75;;
59876;SDS011;74472;51.140;17.184;2024-02-14T02:39:16;46.92;;;29.50;;
59876;SDS011;74472;51.140;17.184;2024-02-14T02:41:41;51.45;;;29.98;;
59876;SDS011;74472;51.140;17.184;2024-02-14T02:44:06;47.22;;;29.85;;
59876;SDS011;74472;51.140;17.184;2024-02-14T02:46:32;50.53;;;31.08;;
59876;SDS011;74472;51.140;17.184;2024-02-14T02:48:57;48.28;;;28.83;;
59876;SDS011;74472;51.140;17.184;2024-02-14T02:51:23;47.40;;;28.67;;
59876;SDS011;74472;51.140;17.184;2024-02-14T02:53:49;52.53;;;32.10;;
59876;SDS011;74472;51.140;17.184;2024-02-14T02:56:14;48.50;;;30.13;;
59876;SDS011;74472;51.140;17.184;2024-02-14T02:58:39;44.63;;;26.33;;
59876;SDS011;74472;51.140;17.184;2024-02-14T03:01:08;49.72;;;29.42;;
59876;SDS011;74472;51.140;17.184;2024-02-14T03:03:34;50.15;;;29.58;;
59876;SDS011;74472;51.140;17.184;2024-02-14T03:06:01;46.22;;;29.63;;
59876;SDS011;74472;51.140;17.184;2024-02-14T03:08:28;51.65;;;28.58;;
59876;SDS011;74472;51.140;17.184;2024-02-14T03:10:55;50.58;;;31.05;;
59876;SDS011;74472;51.140;17.184;2024-02-14T03:13:24;51.28;;;30.45;;
59876;SDS011;74472;51.140;17.184;2024-02-14T03:15:49;50.88;;;31.33;;
59876;SDS011;74472;51.140;17.184;2024-02-14T03:18:15;51.05;;;30.58;;
59876;SDS011;74472;51.140;17.184;2024-02-14T03:20:40;42.17;;;27.30;;
59876;SDS011;74472;51.140;17.184;2024-02-14T03:23:06;50.25;;;29.17;;
59876;SDS011;74472;51.140;17.184;2024-02-14T03:25:31;43.08;;;27.45;;
59876;SDS011;74472;51.140;17.184;2024-02-14T03:27:56;51.00;;;29.48;;
59876;SDS011;74472;51.140;17.184;2024-02-14T03:30:23;44.70;;;26.95;;
59876;SDS011;74472;51.140;17.184;2024-02-14T03:32:49;42.72;;;27.27;;
59876;SDS011;74472;51.140;17.184;2024-02-14T03:35:15;44.75;;;26.73;;
59876;SDS011;74472;51.140;17.184;2024-02-14T03:37:41;42.83;;;26.35;;
59876;SDS011;74472;51.140;17.184;2024-02-14T03:40:09;48.60;;;28.23;;
59876;SDS011;74472;51.140;17.184;2024-02-14T03:42:34;46.15;;;28.77;;
59876;SDS011;74472;51.140;17.184;2024-02-14T03:45:00;50.28;;;29.67;;
59876;SDS011;74472;51.140;17.184;2024-02-14T03:47:33;50.08;;;27.85;;
59876;SDS011;74472;51.140;17.184;2024-02-14T03:49:59;49.05;;;28.50;;
59876;SDS011;74472;51.140;17.184;2024-02-14T03:52:25;46.17;;;28.85;;
59876;SDS011;74472;51.140;17.184;2024-02-14T03:54:51;44.03;;;26.15;;
59876;SDS011;74472;51.140;17.184;2024-02-14T03:57:16;48.28;;;28.05;;
59876;SDS011;74472;51.140;17.184;2024-02-14T03:59:43;51.33;;;30.88;;
59876;SDS011;74472;51.140;17.184;2024-02-14T04:02:09;57.55;;;33.25;;
59876;SDS011;74472;51.140;17.184;2024-02-14T04:04:35;48.90;;;28.05;;
59876;SDS011;74472;51.140;17.184;2024-02-14T04:07:06;54.38;;;32.45;;
59876;SDS011;74472;51.140;17.184;2024-02-14T04:09:33;62.35;;;32.05;;
59876;SDS011;74472;51.140;17.184;2024-02-14T04:11:59;62.08;;;32.88;;
59876;SDS011;74472;51.140;17.184;2024-02-14T04:14:24;58.85;;;31.65;;
59876;SDS011;74472;51.140;17.184;2024-02-14T04:16:50;69.53;;;35.17;;
59876;SDS011;74472;51.140;17.184;2024-02-14T04:19:15;58.97;;;31.15;;
59876;SDS011;74472;51.140;17.184;2024-02-14T04:21:42;58.08;;;32.03;;
59876;SDS011;74472;51.140;17.184;2024-02-14T04:24:08;59.25;;;32.05;;
59876;SDS011;74472;51.140;17.184;2024-02-14T04:26:33;56.88;;;33.33;;
59876;SDS011;74472;51.140;17.184;2024-02-14T04:28:59;55.17;;;33.92;;
59876;SDS011;74472;51.140;17.184;2024-02-14T04:31:24;48.78;;;29.48;;
59876;SDS011;74472;51.140;17.184;2024-02-14T04:33:51;55.22;;;32.38;;
59876;SDS011;74472;51.140;17.184;2024-02-14T04:36:18;56.60;;;30.38;;
59876;SDS011;74472;51.140;17.184;2024-02-14T04:38:46;52.42;;;32.38;;
59876;SDS011;74472;51.140;17.184;2024-02-14T04:41:12;52.42;;;31.23;;
59876;SDS011;74472;51.140;17.184;2024-02-14T04:43:37;51.42;;;30.63;;
59876;SDS011;74472;51.140;17.184;2024-02-14T04:46:03;52.83;;;31.50;;
59876;SDS011;74472;51.140;17.184;2024-02-14T04:48:32;54.78;;;34.15;;
59876;SDS011;74472;51.140;17.184;2024-02-14T04:50:57;55.05;;;31.40;;
59876;SDS011;74472;51.140;17.184;2024-02-14T04:53:23;54.13;;;32.78;;
59876;SDS011;74472;51.140;17.184;2024-02-14T04:55:48;60.60;;;33.13;;
59876;SDS011;74472;51.140;17.184;2024-02-14T04:58:13;57.58;;;31.17;;
59876;SDS011;74472;51.140;17.184;2024-02-14T05:00:38;52.95;;;30.92;;
59876;SDS011;74472;51.140;17.184;2024-02-14T05:03:04;51.58;;;31.30;;
59876;SDS011;74472;51.140;17.184;2024-02-14T05:05:30;60.72;;;29.90;;
59876;SDS011;74472;51.140;17.184;2024-02-14T05:07:55;49.78;;;31.02;;
59876;SDS011;74472;51.140;17.184;2024-02-14T05:10:21;54.55;;;31.60;;
59876;SDS011;74472;51.140;17.184;2024-02-14T05:12:46;46.38;;;30.42;;
59876;SDS011;74472;51.140;17.184;2024-02-14T05:15:12;52.90;;;30.17;;
59876;SDS011;74472;51.140;17.184;2024-02-14T05:17:38;51.95;;;29.88;;
59876;SDS011;74472;51.140;17.184;2024-02-14T05:20:05;50.42;;;32.05;;
59876;SDS011;74472;51.140;17.184;2024-02-14T05:22:34;47.88;;;29.80;;
59876;SDS011;74472;51.140;17.184;2024-02-14T05:25:01;51.97;;;29.33;;
59876;SDS011;74472;51.140;17.184;2024-02-14T05:27:26;51.03;;;29.40;;
59876;SDS011;74472;51.140;17.184;2024-02-14T05:29:51;48.47;;;30.63;;
59876;SDS011;74472;51.140;17.184;2024-02-14T05:32:17;52.97;;;30.27;;
59876;SDS011;74472;51.140;17.184;2024-02-14T05:34:42;56.40;;;33.08;;
59876;SDS011;74472;51.140;17.184;2024-02-14T05:37:07;57.28;;;34.38;;
59876;SDS011;74472;51.140;17.184;2024-02-14T05:39:33;51.25;;;30.63;;
59876;SDS011;74472;51.140;17.184;2024-02-14T05:41:58;48.35;;;30.25;;
59876;SDS011;74472;51.140;17.184;2024-02-14T05:44:24;51.20;;;30.13;;
59876;SDS011;74472;51.140;17.184;2024-02-14T05:46:52;50.92;;;27.98;;
59876;SDS011;74472;51.140;17.184;2024-02-14T05:49:17;47.90;;;29.27;;
59876;SDS011;74472;51.140;17.184;2024-02-14T05:51:43;50.85;;;27.60;;
59876;SDS011;74472;51.140;17.184;2024-02-14T05:54:08;45.63;;;27.15;;
59876;SDS011;74472;51.140;17.184;2024-02-14T05:56:34;48.67;;;28.25;;
59876;SDS011;74472;51.140;17.184;2024-02-14T05:58:59;47.85;;;27.33;;
59876;SDS011;74472;51.140;17.184;2024-02-14T06:01:24;43.13;;;24.92;;
59876;SDS011;74472;51.140;17.184;2024-02-14T06:03:50;40.97;;;24.73;;
59876;SDS011;74472;51.140;17.184;2024-02-14T06:06:15;47.75;;;26.23;;
59876;SDS011;74472;51.140;17.184;2024-02-14T06:08:40;42.53;;;25.98;;
59876;SDS011;74472;51.140;17.184;2024-02-14T06:11:06;42.88;;;24.42;;
59876;SDS011;74472;51.140;17.184;2024-02-14T06:13:31;38.55;;;24.92;;
59876;SDS011;74472;51.140;17.184;2024-02-14T06:15:57;43.00;;;24.73;;
59876;SDS011;74472;51.140;17.184;2024-02-14T06:18:22;42.05;;;25.80;;
59876;SDS011;74472;51.140;17.184;2024-02-14T06:20:47;42.97;;;26.48;;
59876;SDS011;74472;51.140;17.184;2024-02-14T06:23:13;42.47;;;27.42;;
59876;SDS011;74472;51.140;17.184;2024-02-14T06:25:38;43.53;;;24.35;;
59876;SDS011;74472;51.140;17.184;2024-02-14T06:28:04;43.83;;;23.70;;
59876;SDS011;74472;51.140;17.184;2024-02-14T06:30:29;38.80;;;24.48;;
59876;SDS011;74472;51.140;17.184;2024-02-14T06:32:54;40.50;;;23.73;;
59876;SDS011;74472;51.140;17.184;2024-02-14T06:35:21;43.67;;;24.90;;
59876;SDS011;74472;51.140;17.184;2024-02-14T06:37:46;42.92;;;26.33;;
59876;SDS011;74472;51.140;17.184;2024-02-14T06:40:12;45.10;;;24.27;;
59876;SDS011;74472;51.140;17.184;2024-02-14T06:42:37;43.10;;;24.80;;
59876;SDS011;74472;51.140;17.184;2024-02-14T06:45:03;40.20;;;24.42;;
59876;SDS011;74472;51.140;17.184;2024-02-14T06:47:28;47.92;;;28.13;;
59876;SDS011;74472;51.140;17.184;2024-02-14T06:49:57;40.40;;;24.75;;
59876;SDS011;74472;51.140;17.184;2024-02-14T06:52:22;44.00;;;27.83;;
59876;SDS011;74472;51.140;17.184;2024-02-14T06:54:47;40.85;;;24.63;;
59876;SDS011;74472;51.140;17.184;2024-02-14T06:57:13;39.55;;;26.17;;
59876;SDS011;74472;51.140;17.184;2024-02-14T06:59:39;41.63;;;24.73;;
59876;SDS011;74472;51.140;17.184;2024-02-14T07:02:04;44.92;;;27.77;;
59876;SDS011;74472;51.140;17.184;2024-02-14T07:04:30;46.80;;;26.35;;
59876;SDS011;74472;51.140;17.184;2024-02-14T07:06:56;45.80;;;28.92;;
59876;SDS011;74472;51.140;17.184;2024-02-14T07:09:21;52.05;;;30.75;;
59876;SDS011;74472;51.140;17.184;2024-02-14T07:11:46;47.92;;;28.90;;
59876;SDS011;74472;51.140;17.184;2024-02-14T07:14:12;48.08;;;28.50;;
59876;SDS011;74472;51.140;17.184;2024-02-14T07:16:37;50.58;;;31.13;;
59876;SDS011;74472;51.140;17.184;2024-02-14T07:19:03;44.25;;;28.20;;
59876;SDS011;74472;51.140;17.184;2024-02-14T07:21:28;53.92;;;30.52;;
59876;SDS011;74472;51.140;17.184;2024-02-14T07:23:54;57.03;;;31.90;;
59876;SDS011;74472;51.140;17.184;2024-02-14T07:26:19;57.42;;;35.05;;
59876;SDS011;74472;51.140;17.184;2024-02-14T07:28:45;61.13;;;36.00;;
59876;SDS011;74472;51.140;17.184;2024-02-14T07:31:10;58.97;;;35.67;;
59876;SDS011;74472;51.140;17.184;2024-02-14T07:33:36;61.85;;;37.20;;
59876;SDS011;74472;51.140;17.184;2024-02-14T07:36:01;49.72;;;30.40;;
59876;SDS011;74472;51.140;17.184;2024-02-14T07:38:27;59.70;;;33.08;;
59876;SDS011;74472;51.140;17.184;2024-02-14T07:40:52;49.13;;;33.00;;
59876;SDS011;74472;51.140;17.184;2024-02-14T07:43:17;60.13;;;32.53;;
59876;SDS011;74472;51.140;17.184;2024-02-14T07:45:43;49.83;;;32.58;;
59876;SDS011;74472;51.140;17.184;2024-02-14T07:48:08;55.28;;;31.20;;
59876;SDS011;74472;51.140;17.184;2024-02-14T07:50:33;47.30;;;28.23;;
59876;SDS011;74472;51.140;17.184;2024-02-14T07:52:59;56.30;;;31.52;;
59876;SDS011;74472;51.140;17.184;2024-02-14T07:55:24;48.72;;;28.05;;
59876;SDS011;74472;51.140;17.184;2024-02-14T07:57:49;47.55;;;29.52;;
59876;SDS011;74472;51.140;17.184;2024-02-14T08:00:15;46.67;;;26.45;;
59876;SDS011;74472;51.140;17.184;2024-02-14T08:02:47;47.70;;;28.17;;
59876;SDS011;74472;51.140;17.184;2024-02-14T08:05:12;44.70;;;26.70;;
59876;SDS011;74472;51.140;17.184;2024-02-14T08:07:38;40.03;;;26.42;;
59876;SDS011;74472;51.140;17.184;2024-02-14T08:10:03;44.83;;;26.20;;
59876;SDS011;74472;51.140;17.184;2024-02-14T08:12:30;64.55;;;38.75;;
59876;SDS011;74472;51.140;17.184;2024-02-14T08:14:55;99.00;;;55.92;;
59876;SDS011;74472;51.140;17.184;2024-02-14T08:17:21;81.95;;;46.88;;
59876;SDS011;74472;51.140;17.184;2024-02-14T08:19:46;54.67;;;31.23;;
59876;SDS011;74472;51.140;17.184;2024-02-14T08:22:12;51.35;;;29.38;;
59876;SDS011;74472;51.140;17.184;2024-02-14T08:24:38;46.25;;;27.17;;
59876;SDS011;74472;51.140;17.184;2024-02-14T08:27:03;46.30;;;26.10;;
59876;SDS011;74472;51.140;17.184;2024-02-14T08:29:31;45.05;;;25.35;;
59876;SDS011;74472;51.140;17.184;2024-02-14T08:31:57;44.10;;;24.95;;
59876;SDS011;74472;51.140;17.184;2024-02-14T08:34:22;40.35;;;23.80;;
59876;SDS011;74472;51.140;17.184;2024-02-14T08:36:47;43.47;;;25.52;;
59876;SDS011;74472;51.140;17.184;2024-02-14T08:39:13;45.38;;;25.58;;
59876;SDS011;74472;51.140;17.184;2024-02-14T08:41:38;43.03;;;24.63;;
59876;SDS011;74472;51.140;17.184;2024-02-14T08:44:06;40.97;;;23.05;;
59876;SDS011;74472;51.140;17.184;2024-02-14T08:46:31;44.65;;;24.02;;
59876;SDS011;74472;51.140;17.184;2024-02-14T08:48:57;47.13;;;24.10;;
59876;SDS011;74472;51.140;17.184;2024-02-14T08:51:22;37.25;;;22.58;;
59876;SDS011;74472;51.140;17.184;2024-02-14T08:53:48;43.00;;;24.75;;
59876;SDS011;74472;51.140;17.184;2024-02-14T08:56:16;48.28;;;26.75;;
59876;SDS011;74472;51.140;17.184;2024-02-14T08:58:41;35.25;;;20.95;;
59876;SDS011;74472;51.140;17.184;2024-02-14T09:01:07;33.75;;;21.23;;
59876;SDS011;74472;51.140;17.184;2024-02-14T09:03:34;38.70;;;20.40;;
59876;SDS011;74472;51.140;17.184;2024-02-14T09:05:59;38.65;;;20.35;;
59876;SDS011;74472;51.140;17.184;2024-02-14T09:08:25;34.42;;;20.30;;
59876;SDS011;74472;51.140;17.184;2024-02-14T09:10:50;36.45;;;19.35;;
59876;SDS011;74472;51.140;17.184;2024-02-14T09:13:16;36.63;;;20.48;;
59876;SDS011;74472;51.140;17.184;2024-02-14T09:15:42;31.52;;;17.85;;
59876;SDS011;74472;51.140;17.184;2024-02-14T09:18:08;25.35;;;13.93;;
59876;SDS011;74472;51.140;17.184;2024-02-14T09:20:33;26.88;;;14.20;;
59876;SDS011;74472;51.140;17.184;2024-02-14T09:22:59;23.15;;;14.25;;
59876;SDS011;74472;51.140;17.184;2024-02-14T09:25:24;23.50;;;14.43;;
59876;SDS011;74472;51.140;17.184;2024-02-14T09:27:50;24.08;;;14.60;;
59876;SDS011;74472;51.140;17.184;2024-02-14T09:30:16;25.92;;;14.10;;
59876;SDS011;74472;51.140;17.184;2024-02-14T09:32:43;22.02;;;13.18;;
59876;SDS011;74472;51.140;17.184;2024-02-14T09:35:09;25.27;;;14.52;;
59876;SDS011;74472;51.140;17.184;2024-02-14T09:37:34;24.23;;;14.35;;
59876;SDS011;74472;51.140;17.184;2024-02-14T09:39:59;19.73;;;12.07;;
59876;SDS011;74472;51.140;17.184;2024-02-14T09:45:22;19.77;;;14.07;;
59876;SDS011;74472;51.140;17.184;2024-02-14T09:47:49;23.67;;;13.60;;
59876;SDS011;74472;51.140;17.184;2024-02-14T09:50:16;19.80;;;12.60;;
59876;SDS011;74472;51.140;17.184;2024-02-14T09:52:43;21.38;;;13.73;;
59876;SDS011;74472;51.140;17.184;2024-02-14T09:55:12;20.20;;;14.20;;
59876;SDS011;74472;51.140;17.184;2024-02-14T09:57:40;21.88;;;13.55;;
59876;SDS011;74472;51.140;17.184;2024-02-14T10:00:08;22.90;;;12.75;;
59876;SDS011;74472;51.140;17.184;2024-02-14T10:02:35;26.88;;;14.43;;
59876;SDS011;74472;51.140;17.184;2024-02-14T10:05:00;26.27;;;14.43;;
59876;SDS011;74472;51.140;17.184;2024-02-14T10:07:26;25.73;;;15.23;;
59876;SDS011;74472;51.140;17.184;2024-02-14T10:09:52;19.80;;;12.55;;
59876;SDS011;74472;51.140;17.184;2024-02-14T10:12:18;21.38;;;12.90;;
59876;SDS011;74472;51.140;17.184;2024-02-14T10:14:44;19.88;;;10.77;;
59876;SDS011;74472;51.140;17.184;2024-02-14T10:17:16;18.85;;;10.60;;
59876;SDS011;74472;51.140;17.184;2024-02-14T10:19:43;16.77;;;10.60;;
59876;SDS011;74472;51.140;17.184;2024-02-14T10:22:08;15.82;;;10.32;;
59876;SDS011;74472;51.140;17.184;2024-02-14T10:24:33;19.55;;;11.15;;
59876;SDS011;74472;51.140;17.184;2024-02-14T10:26:59;18.02;;;11.82;;
59876;SDS011;74472;51.140;17.184;2024-02-14T10:29:25;17.42;;;11.52;;
59876;SDS011;74472;51.140;17.184;2024-02-14T10:31:50;17.55;;;9.63;;
59876;SDS011;74472;51.140;17.184;2024-02-14T10:34:17;11.27;;;8.05;;
59876;SDS011;74472;51.140;17.184;2024-02-14T10:36:43;13.30;;;9.30;;
59876;SDS011;74472;51.140;17.184;2024-02-14T10:39:09;15.70;;;8.70;;
59876;SDS011;74472;51.140;17.184;2024-02-14T10:41:36;16.60;;;8.95;;
59876;SDS011;74472;51.140;17.184;2024-02-14T10:44:02;16.10;;;9.73;;
59876;SDS011;74472;51.140;17.184;2024-02-14T10:46:35;11.18;;;7.32;;
59876;SDS011;74472;51.140;17.184;2024-02-14T10:49:03;14.43;;;9.18;;
59876;SDS011;74472;51.140;17.184;2024-02-14T10:51:32;15.10;;;7.78;;
59876;SDS011;74472;51.140;17.184;2024-02-14T10:54:12;8.65;;;5.75;;
59876;SDS011;74472;51.140;17.184;2024-02-14T10:56:41;10.93;;;6.80;;
59876;SDS011;74472;51.140;17.184;2024-02-14T10:59:10;10.52;;;6.80;;
59876;SDS011;74472;51.140;17.184;2024-02-14T11:01:38;9.70;;;6.13;;
59876;SDS011;74472;51.140;17.184;2024-02-14T11:04:05;12.50;;;6.53;;
59876;SDS011;74472;51.140;17.184;2024-02-14T11:06:32;9.70;;;6.05;;
59876;SDS011;74472;51.140;17.184;2024-02-14T11:08:59;13.07;;;6.40;;
59876;SDS011;74472;51.140;17.184;2024-02-14T11:11:29;8.32;;;5.53;;
59876;SDS011;74472;51.140;17.184;2024-02-14T11:13:57;17.70;;;6.43;;
59876;SDS011;74472;51.140;17.184;2024-02-14T11:16:25;9.73;;;5.88;;
59876;SDS011;74472;51.140;17.184;2024-02-14T11:18:53;8.25;;;4.90;;
59876;SDS011;74472;51.140;17.184;2024-02-14T11:21:19;8.45;;;4.88;;
59876;SDS011;74472;51.140;17.184;2024-02-14T11:23:53;19.38;;;7.03;;
59876;SDS011;74472;51.140;17.184;2024-02-14T11:26:23;8.15;;;4.95;;
59876;SDS011;74472;51.140;17.184;2024-02-14T11:28:49;8.25;;;4.88;;
59876;SDS011;74472;51.140;17.184;2024-02-14T11:31:16;8.13;;;4.55;;
59876;SDS011;74472;51.140;17.184;2024-02-14T11:33:42;7.80;;;4.95;;
59876;SDS011;74472;51.140;17.184;2024-02-14T11:36:10;10.98;;;4.47;;
59876;SDS011;74472;51.140;17.184;2024-02-14T11:38:36;7.80;;;4.55;;
59876;SDS011;74472;51.140;17.184;2024-02-14T11:41:02;10.00;;;5.55;;
59876;SDS011;74472;51.140;17.184;2024-02-14T11:43:28;11.23;;;5.20;;
59876;SDS011;74472;51.140;17.184;2024-02-14T11:45:54;8.10;;;5.47;;
59876;SDS011;74472;51.140;17.184;2024-02-14T11:48:19;13.73;;;7.82;;
59876;SDS011;74472;51.140;17.184;2024-02-14T11:50:46;8.75;;;4.75;;
59876;SDS011;74472;51.140;17.184;2024-02-14T11:53:15;10.40;;;6.25;;
59876;SDS011;74472;51.140;17.184;2024-02-14T11:55:47;21.08;;;12.10;;
59876;SDS011;74472;51.140;17.184;2024-02-14T11:58:13;26.42;;;13.90;;
59876;SDS011;74472;51.140;17.184;2024-02-14T12:00:41;36.30;;;20.25;;
59876;SDS011;74472;51.140;17.184;2024-02-14T12:03:12;51.15;;;22.05;;
59876;SDS011;74472;51.140;17.184;2024-02-14T12:05:46;16.98;;;8.68;;
59876;SDS011;74472;51.140;17.184;2024-02-14T12:08:12;13.05;;;6.70;;
59876;SDS011;74472;51.140;17.184;2024-02-14T12:10:39;10.35;;;6.22;;
59876;SDS011;74472;51.140;17.184;2024-02-14T12:13:06;8.48;;;5.43;;
59876;SDS011;74472;51.140;17.184;2024-02-14T12:15:36;11.15;;;5.53;;
59876;SDS011;74472;51.140;17.184;2024-02-14T12:18:03;10.50;;;5.72;;
59876;SDS011;74472;51.140;17.184;2024-02-14T12:20:28;7.35;;;4.72;;
59876;SDS011;74472;51.140;17.184;2024-02-14T12:22:54;9.50;;;4.68;;
59876;SDS011;74472;51.140;17.184;2024-02-14T12:25:19;10.45;;;4.45;;
59876;SDS011;74472;51.140;17.184;2024-02-14T12:27:51;8.82;;;4.28;;
59876;SDS011;74472;51.140;17.184;2024-02-14T12:30:17;9.57;;;4.33;;
59876;SDS011;74472;51.140;17.184;2024-02-14T12:32:43;8.40;;;5.00;;
59876;SDS011;74472;51.140;17.184;2024-02-14T12:35:09;7.70;;;5.28;;
59876;SDS011;74472;51.140;17.184;2024-02-14T12:37:35;9.52;;;6.13;;
59876;SDS011;74472;51.140;17.184;2024-02-14T12:40:01;7.97;;;4.50;;
59876;SDS011;74472;51.140;17.184;2024-02-14T12:42:27;10.43;;;6.00;;
59876;SDS011;74472;51.140;17.184;2024-02-14T12:44:55;11.15;;;6.38;;
59876;SDS011;74472;51.140;17.184;2024-02-14T12:47:20;8.20;;;6.05;;
59876;SDS011;74472;51.140;17.184;2024-02-14T12:49:47;8.60;;;4.22;;
59876;SDS011;74472;51.140;17.184;2024-02-14T12:52:13;8.65;;;5.05;;
59876;SDS011;74472;51.140;17.184;2024-02-14T12:54:39;9.15;;;4.97;;
59876;SDS011;74472;51.140;17.184;2024-02-14T12:57:04;13.23;;;6.75;;
59876;SDS011;74472;51.140;17.184;2024-02-14T12:59:30;11.10;;;6.07;;
59876;SDS011;74472;51.140;17.184;2024-02-14T13:01:56;9.20;;;5.05;;
59876;SDS011;74472;51.140;17.184;2024-02-14T13:04:21;17.95;;;10.30;;
59876;SDS011;74472;51.140;17.184;2024-02-14T13:06:47;9.32;;;6.15;;
59876;SDS011;74472;51.140;17.184;2024-02-14T13:09:13;6.57;;;4.53;;
59876;SDS011;74472;51.140;17.184;2024-02-14T13:11:39;8.25;;;5.93;;
59876;SDS011;74472;51.140;17.184;2024-02-14T13:14:06;13.48;;;8.43;;
59876;SDS011;74472;51.140;17.184;2024-02-14T13:16:31;15.80;;;7.68;;
59876;SDS011;74472;51.140;17.184;2024-02-14T13:18:57;9.60;;;6.45;;
59876;SDS011;74472;51.140;17.184;2024-02-14T13:21:22;12.05;;;5.40;;
59876;SDS011;74472;51.140;17.184;2024-02-14T13:23:47;12.98;;;7.30;;
59876;SDS011;74472;51.140;17.184;2024-02-14T13:26:13;8.98;;;5.65;;
59876;SDS011;74472;51.140;17.184;2024-02-14T13:28:39;9.45;;;3.80;;
59876;SDS011;74472;51.140;17.184;2024-02-14T13:31:05;7.45;;;4.45;;
59876;SDS011;74472;51.140;17.184;2024-02-14T13:33:31;8.93;;;4.45;;
59876;SDS011;74472;51.140;17.184;2024-02-14T13:35:56;5.97;;;3.70;;
59876;SDS011;74472;51.140;17.184;2024-02-14T13:38:22;10.07;;;4.15;;
59876;SDS011;74472;51.140;17.184;2024-02-14T13:40:47;6.60;;;2.80;;
59876;SDS011;74472;51.140;17.184;2024-02-14T13:43:13;7.85;;;3.60;;
59876;SDS011;74472;51.140;17.184;2024-02-14T13:45:41;9.43;;;4.55;;
59876;SDS011;74472;51.140;17.184;2024-02-14T13:48:10;8.18;;;4.35;;
59876;SDS011;74472;51.140;17.184;2024-02-14T13:50:36;14.20;;;6.10;;
59876;SDS011;74472;51.140;17.184;2024-02-14T13:53:03;7.47;;;3.65;;
59876;SDS011;74472;51.140;17.184;2024-02-14T13:55:29;7.18;;;3.60;;
59876;SDS011;74472;51.140;17.184;2024-02-14T13:57:54;9.27;;;4.10;;
59876;SDS011;74472;51.140;17.184;2024-02-14T14:00:19;8.60;;;3.80;;
59876;SDS011;74472;51.140;17.184;2024-02-14T14:02:45;10.77;;;5.05;;
59876;SDS011;74472;51.140;17.184;2024-02-14T14:05:11;6.95;;;3.80;;
59876;SDS011;74472;51.140;17.184;2024-02-14T14:07:39;10.52;;;4.72;;
59876;SDS011;74472;51.140;17.184;2024-02-14T14:10:06;6.65;;;4.32;;